sensor_id;sensor_type;location;lat;lon;timestamp;P1;durP1;ratioP1;P2;durP2;ratioP2
84834;SDS011;75078;42.636;23.198;2024-03-02T00:02:07;21.60;;;11.88;;
84834;SDS011;75078;42.636;23.198;2024-03-02T00:04:33;26.08;;;13.00;;
84834;SDS011;75078;42.636;23.198;2024-03-02T00:06:58;28.35;;;12.40;;
84834;SDS011;75078;42.636;23.198;2024-03-02T00:09:24;24.25;;;11.82;;
84834;SDS011;75078;42.636;23.198;2024-03-02T00:11:49;27.27;;;12.77;;
84834;SDS011;75078;42.636;23.198;2024-03-02T00:14:16;23.25;;;11.45;;
84834;SDS011;75078;42.636;23.198;2024-03-02T00:16:41;28.48;;;13.70;;
84834;SDS011;75078;42.636;23.198;2024-03-02T00:19:07;23.17;;;12.05;;
84834;SDS011;75078;42.636;23.198;2024-03-02T00:21:34;24.00;;;12.77;;
84834;SDS011;75078;42.636;23.198;2024-03-02T00:24:00;26.27;;;12.45;;
84834;SDS011;75078;42.636;23.198;2024-03-02T00:26:31;26.48;;;12.85;;
84834;SDS011;75078;42.636;23.198;2024-03-02T00:28:57;28.52;;;14.27;;
84834;SDS011;75078;42.636;23.198;2024-03-02T00:31:22;34.88;;;16.75;;
84834;SDS011;75078;42.636;23.198;2024-03-02T00:33:48;35.65;;;15.30;;
84834;SDS011;75078;42.636;23.198;2024-03-02T00:36:21;36.42;;;16.30;;
84834;SDS011;75078;42.636;23.198;2024-03-02T00:38:50;30.02;;;15.95;;
84834;SDS011;75078;42.636;23.198;2024-03-02T00:41:34;33.60;;;15.50;;
84834;SDS011;75078;42.636;23.198;2024-03-02T00:46:27;33.03;;;16.05;;
84834;SDS011;75078;42.636;23.198;2024-03-02T00:48:56;30.33;;;14.68;;
84834;SDS011;75078;42.636;23.198;2024-03-02T00:51:23;28.58;;;14.73;;
84834;SDS011;75078;42.636;23.198;2024-03-02T00:53:54;32.53;;;16.27;;
84834;SDS011;75078;42.636;23.198;2024-03-02T00:56:21;28.20;;;16.27;;
84834;SDS011;75078;42.636;23.198;2024-03-02T00:58:47;33.00;;;16.35;;
84834;SDS011;75078;42.636;23.198;2024-03-02T01:01:13;34.75;;;15.98;;
84834;SDS011;75078;42.636;23.198;2024-03-02T01:03:38;30.50;;;15.68;;
84834;SDS011;75078;42.636;23.198;2024-03-02T01:06:04;28.10;;;14.73;;
84834;SDS011;75078;42.636;23.198;2024-03-02T01:08:30;31.95;;;15.43;;
84834;SDS011;75078;42.636;23.198;2024-03-02T01:10:55;28.45;;;14.75;;
84834;SDS011;75078;42.636;23.198;2024-03-02T01:13:21;29.33;;;13.80;;
84834;SDS011;75078;42.636;23.198;2024-03-02T01:15:48;30.85;;;14.93;;
84834;SDS011;75078;42.636;23.198;2024-03-02T01:18:14;28.85;;;13.07;;
84834;SDS011;75078;42.636;23.198;2024-03-02T01:20:39;26.63;;;13.93;;
84834;SDS011;75078;42.636;23.198;2024-03-02T01:23:05;27.00;;;13.50;;
84834;SDS011;75078;42.636;23.198;2024-03-02T01:25:30;29.38;;;15.10;;
84834;SDS011;75078;42.636;23.198;2024-03-02T01:27:56;28.98;;;15.82;;
84834;SDS011;75078;42.636;23.198;2024-03-02T01:30:21;29.25;;;14.77;;
84834;SDS011;75078;42.636;23.198;2024-03-02T01:32:47;28.58;;;13.35;;
84834;SDS011;75078;42.636;23.198;2024-03-02T01:35:12;24.25;;;12.38;;
84834;SDS011;75078;42.636;23.198;2024-03-02T01:37:37;20.95;;;11.85;;
84834;SDS011;75078;42.636;23.198;2024-03-02T01:40:03;26.55;;;12.13;;
84834;SDS011;75078;42.636;23.198;2024-03-02T01:42:34;29.52;;;13.90;;
84834;SDS011;75078;42.636;23.198;2024-03-02T01:45:04;31.17;;;14.15;;
84834;SDS011;75078;42.636;23.198;2024-03-02T01:47:30;31.00;;;14.15;;
84834;SDS011;75078;42.636;23.198;2024-03-02T01:49:55;27.92;;;13.75;;
84834;SDS011;75078;42.636;23.198;2024-03-02T01:52:21;26.45;;;13.13;;
84834;SDS011;75078;42.636;23.198;2024-03-02T01:54:46;27.25;;;14.48;;
84834;SDS011;75078;42.636;23.198;2024-03-02T01:57:12;25.52;;;13.60;;
84834;SDS011;75078;42.636;23.198;2024-03-02T01:59:37;29.05;;;13.00;;
84834;SDS011;75078;42.636;23.198;2024-03-02T02:02:02;25.27;;;13.45;;
84834;SDS011;75078;42.636;23.198;2024-03-02T02:04:28;29.10;;;12.77;;
84834;SDS011;75078;42.636;23.198;2024-03-02T02:06:54;25.98;;;12.70;;
84834;SDS011;75078;42.636;23.198;2024-03-02T02:09:19;23.27;;;12.52;;
84834;SDS011;75078;42.636;23.198;2024-03-02T02:11:44;24.42;;;11.63;;
84834;SDS011;75078;42.636;23.198;2024-03-02T02:14:10;23.98;;;12.25;;
84834;SDS011;75078;42.636;23.198;2024-03-02T02:16:36;26.00;;;12.80;;
84834;SDS011;75078;42.636;23.198;2024-03-02T02:19:01;19.95;;;12.48;;
84834;SDS011;75078;42.636;23.198;2024-03-02T02:21:27;27.77;;;12.93;;
84834;SDS011;75078;42.636;23.198;2024-03-02T02:23:52;25.70;;;12.73;;
84834;SDS011;75078;42.636;23.198;2024-03-02T02:26:18;28.45;;;13.27;;
84834;SDS011;75078;42.636;23.198;2024-03-02T02:28:43;27.83;;;13.65;;
84834;SDS011;75078;42.636;23.198;2024-03-02T02:33:39;29.08;;;13.50;;
84834;SDS011;75078;42.636;23.198;2024-03-02T02:36:05;30.45;;;13.82;;
84834;SDS011;75078;42.636;23.198;2024-03-02T02:38:30;28.98;;;14.20;;
84834;SDS011;75078;42.636;23.198;2024-03-02T02:41:01;25.58;;;12.93;;
84834;SDS011;75078;42.636;23.198;2024-03-02T02:43:27;30.55;;;13.90;;
84834;SDS011;75078;42.636;23.198;2024-03-02T02:45:52;28.10;;;13.95;;
84834;SDS011;75078;42.636;23.198;2024-03-02T02:48:18;28.10;;;14.25;;
84834;SDS011;75078;42.636;23.198;2024-03-02T02:50:43;22.70;;;12.32;;
84834;SDS011;75078;42.636;23.198;2024-03-02T02:53:08;26.50;;;14.02;;
84834;SDS011;75078;42.636;23.198;2024-03-02T02:55:35;30.45;;;14.23;;
84834;SDS011;75078;42.636;23.198;2024-03-02T02:58:05;30.45;;;14.35;;
84834;SDS011;75078;42.636;23.198;2024-03-02T03:00:33;28.83;;;13.98;;
84834;SDS011;75078;42.636;23.198;2024-03-02T03:02:58;27.63;;;14.55;;
84834;SDS011;75078;42.636;23.198;2024-03-02T03:05:24;31.48;;;14.93;;
84834;SDS011;75078;42.636;23.198;2024-03-02T03:07:49;27.15;;;13.73;;
84834;SDS011;75078;42.636;23.198;2024-03-02T03:10:15;26.98;;;13.75;;
84834;SDS011;75078;42.636;23.198;2024-03-02T03:12:41;24.83;;;13.05;;
84834;SDS011;75078;42.636;23.198;2024-03-02T03:15:08;29.48;;;13.82;;
84834;SDS011;75078;42.636;23.198;2024-03-02T03:17:34;28.50;;;13.70;;
84834;SDS011;75078;42.636;23.198;2024-03-02T03:20:00;23.27;;;11.88;;
84834;SDS011;75078;42.636;23.198;2024-03-02T03:22:26;25.52;;;12.93;;
84834;SDS011;75078;42.636;23.198;2024-03-02T03:24:52;23.38;;;13.10;;
84834;SDS011;75078;42.636;23.198;2024-03-02T03:27:17;23.63;;;13.30;;
84834;SDS011;75078;42.636;23.198;2024-03-02T03:29:43;26.42;;;13.40;;
84834;SDS011;75078;42.636;23.198;2024-03-02T03:32:08;24.73;;;12.38;;
84834;SDS011;75078;42.636;23.198;2024-03-02T03:34:34;26.83;;;13.70;;
84834;SDS011;75078;42.636;23.198;2024-03-02T03:36:59;22.95;;;11.93;;
84834;SDS011;75078;42.636;23.198;2024-03-02T03:39:25;24.63;;;12.45;;
84834;SDS011;75078;42.636;23.198;2024-03-02T03:41:50;26.25;;;12.73;;
84834;SDS011;75078;42.636;23.198;2024-03-02T03:44:16;25.42;;;13.82;;
84834;SDS011;75078;42.636;23.198;2024-03-02T03:46:41;24.13;;;11.63;;
84834;SDS011;75078;42.636;23.198;2024-03-02T03:49:07;22.73;;;12.27;;
84834;SDS011;75078;42.636;23.198;2024-03-02T03:51:33;23.02;;;12.52;;
84834;SDS011;75078;42.636;23.198;2024-03-02T03:53:58;24.02;;;12.02;;
84834;SDS011;75078;42.636;23.198;2024-03-02T03:56:24;27.98;;;12.95;;
84834;SDS011;75078;42.636;23.198;2024-03-02T03:58:49;25.95;;;12.25;;
84834;SDS011;75078;42.636;23.198;2024-03-02T04:01:14;25.17;;;12.13;;
84834;SDS011;75078;42.636;23.198;2024-03-02T04:03:40;26.08;;;12.13;;
84834;SDS011;75078;42.636;23.198;2024-03-02T04:06:05;27.80;;;13.13;;
84834;SDS011;75078;42.636;23.198;2024-03-02T04:08:30;24.17;;;11.65;;
84834;SDS011;75078;42.636;23.198;2024-03-02T04:10:56;36.33;;;15.15;;
84834;SDS011;75078;42.636;23.198;2024-03-02T04:13:21;44.95;;;19.02;;
84834;SDS011;75078;42.636;23.198;2024-03-02T04:15:47;31.55;;;14.63;;
84834;SDS011;75078;42.636;23.198;2024-03-02T04:18:12;25.80;;;13.20;;
84834;SDS011;75078;42.636;23.198;2024-03-02T04:20:37;31.27;;;14.75;;
84834;SDS011;75078;42.636;23.198;2024-03-02T04:23:03;27.30;;;13.35;;
84834;SDS011;75078;42.636;23.198;2024-03-02T04:25:28;28.05;;;12.93;;
84834;SDS011;75078;42.636;23.198;2024-03-02T04:27:54;27.20;;;12.57;;
84834;SDS011;75078;42.636;23.198;2024-03-02T04:30:19;26.70;;;13.65;;
84834;SDS011;75078;42.636;23.198;2024-03-02T04:32:44;26.92;;;13.35;;
84834;SDS011;75078;42.636;23.198;2024-03-02T04:35:12;25.92;;;13.00;;
84834;SDS011;75078;42.636;23.198;2024-03-02T04:37:40;26.70;;;12.55;;
84834;SDS011;75078;42.636;23.198;2024-03-02T04:40:05;29.08;;;14.75;;
84834;SDS011;75078;42.636;23.198;2024-03-02T04:42:35;36.75;;;22.02;;
84834;SDS011;75078;42.636;23.198;2024-03-02T04:45:00;35.78;;;19.55;;
84834;SDS011;75078;42.636;23.198;2024-03-02T04:47:26;31.23;;;16.83;;
84834;SDS011;75078;42.636;23.198;2024-03-02T04:49:51;28.65;;;15.20;;
84834;SDS011;75078;42.636;23.198;2024-03-02T04:52:17;32.45;;;18.52;;
84834;SDS011;75078;42.636;23.198;2024-03-02T04:54:43;29.35;;;14.85;;
84834;SDS011;75078;42.636;23.198;2024-03-02T04:57:27;28.23;;;12.95;;
84834;SDS011;75078;42.636;23.198;2024-03-02T04:59:52;21.25;;;12.02;;
84834;SDS011;75078;42.636;23.198;2024-03-02T05:02:17;26.23;;;12.57;;
84834;SDS011;75078;42.636;23.198;2024-03-02T05:04:43;23.95;;;11.68;;
84834;SDS011;75078;42.636;23.198;2024-03-02T05:07:08;22.30;;;11.60;;
84834;SDS011;75078;42.636;23.198;2024-03-02T05:09:34;27.23;;;11.48;;
84834;SDS011;75078;42.636;23.198;2024-03-02T05:11:59;20.45;;;10.65;;
84834;SDS011;75078;42.636;23.198;2024-03-02T05:14:56;19.13;;;10.38;;
84834;SDS011;75078;42.636;23.198;2024-03-02T05:17:22;21.35;;;10.38;;
84834;SDS011;75078;42.636;23.198;2024-03-02T05:19:47;19.40;;;10.57;;
84834;SDS011;75078;42.636;23.198;2024-03-02T05:22:13;22.10;;;11.10;;
84834;SDS011;75078;42.636;23.198;2024-03-02T05:24:38;21.00;;;10.35;;
84834;SDS011;75078;42.636;23.198;2024-03-02T05:27:03;21.90;;;11.18;;
84834;SDS011;75078;42.636;23.198;2024-03-02T05:29:29;22.30;;;9.82;;
84834;SDS011;75078;42.636;23.198;2024-03-02T05:31:54;18.45;;;9.48;;
84834;SDS011;75078;42.636;23.198;2024-03-02T05:34:20;17.20;;;8.75;;
84834;SDS011;75078;42.636;23.198;2024-03-02T05:36:45;19.45;;;10.57;;
84834;SDS011;75078;42.636;23.198;2024-03-02T05:39:11;22.85;;;11.35;;
84834;SDS011;75078;42.636;23.198;2024-03-02T05:41:36;22.75;;;14.23;;
84834;SDS011;75078;42.636;23.198;2024-03-02T05:44:03;22.98;;;13.32;;
84834;SDS011;75078;42.636;23.198;2024-03-02T05:46:28;24.58;;;12.15;;
84834;SDS011;75078;42.636;23.198;2024-03-02T05:48:54;24.40;;;12.10;;
84834;SDS011;75078;42.636;23.198;2024-03-02T05:51:19;20.45;;;12.15;;
84834;SDS011;75078;42.636;23.198;2024-03-02T05:53:44;21.17;;;11.50;;
84834;SDS011;75078;42.636;23.198;2024-03-02T05:56:10;21.40;;;11.70;;
84834;SDS011;75078;42.636;23.198;2024-03-02T05:58:37;19.55;;;10.85;;
84834;SDS011;75078;42.636;23.198;2024-03-02T06:01:29;18.63;;;9.68;;
84834;SDS011;75078;42.636;23.198;2024-03-02T06:03:55;19.10;;;10.38;;
84834;SDS011;75078;42.636;23.198;2024-03-02T06:06:21;20.23;;;11.18;;
84834;SDS011;75078;42.636;23.198;2024-03-02T06:08:47;23.63;;;12.55;;
84834;SDS011;75078;42.636;23.198;2024-03-02T06:11:13;23.10;;;12.18;;
84834;SDS011;75078;42.636;23.198;2024-03-02T06:13:38;25.83;;;13.30;;
84834;SDS011;75078;42.636;23.198;2024-03-02T06:16:03;26.00;;;12.10;;
84834;SDS011;75078;42.636;23.198;2024-03-02T06:18:29;26.63;;;13.38;;
84834;SDS011;75078;42.636;23.198;2024-03-02T06:20:54;24.50;;;12.00;;
84834;SDS011;75078;42.636;23.198;2024-03-02T06:23:20;32.67;;;16.88;;
84834;SDS011;75078;42.636;23.198;2024-03-02T06:25:45;30.95;;;14.73;;
84834;SDS011;75078;42.636;23.198;2024-03-02T06:28:11;26.88;;;12.75;;
84834;SDS011;75078;42.636;23.198;2024-03-02T06:30:36;29.27;;;13.63;;
84834;SDS011;75078;42.636;23.198;2024-03-02T06:33:01;26.80;;;13.38;;
84834;SDS011;75078;42.636;23.198;2024-03-02T06:35:28;26.25;;;14.55;;
84834;SDS011;75078;42.636;23.198;2024-03-02T06:37:54;29.83;;;13.95;;
84834;SDS011;75078;42.636;23.198;2024-03-02T06:40:19;28.67;;;14.82;;
84834;SDS011;75078;42.636;23.198;2024-03-02T06:42:46;30.77;;;14.40;;
84834;SDS011;75078;42.636;23.198;2024-03-02T06:45:11;31.38;;;16.02;;
84834;SDS011;75078;42.636;23.198;2024-03-02T06:47:37;32.53;;;15.00;;
84834;SDS011;75078;42.636;23.198;2024-03-02T06:50:02;30.10;;;14.20;;
84834;SDS011;75078;42.636;23.198;2024-03-02T06:52:27;29.98;;;13.63;;
84834;SDS011;75078;42.636;23.198;2024-03-02T06:54:53;26.77;;;13.35;;
84834;SDS011;75078;42.636;23.198;2024-03-02T06:57:18;31.23;;;15.13;;
84834;SDS011;75078;42.636;23.198;2024-03-02T06:59:45;30.52;;;14.13;;
84834;SDS011;75078;42.636;23.198;2024-03-02T07:02:11;30.40;;;14.32;;
84834;SDS011;75078;42.636;23.198;2024-03-02T07:04:37;29.80;;;14.50;;
84834;SDS011;75078;42.636;23.198;2024-03-02T07:07:02;30.75;;;14.75;;
84834;SDS011;75078;42.636;23.198;2024-03-02T07:09:28;32.55;;;15.23;;
84834;SDS011;75078;42.636;23.198;2024-03-02T07:11:53;66.53;;;25.73;;
84834;SDS011;75078;42.636;23.198;2024-03-02T07:14:19;74.38;;;28.05;;
84834;SDS011;75078;42.636;23.198;2024-03-02T07:16:44;41.50;;;19.00;;
84834;SDS011;75078;42.636;23.198;2024-03-02T07:19:09;37.25;;;17.20;;
84834;SDS011;75078;42.636;23.198;2024-03-02T07:21:35;41.65;;;15.82;;
84834;SDS011;75078;42.636;23.198;2024-03-02T07:24:00;37.63;;;16.42;;
84834;SDS011;75078;42.636;23.198;2024-03-02T07:28:56;32.97;;;15.93;;
84834;SDS011;75078;42.636;23.198;2024-03-02T07:31:22;37.63;;;15.80;;
84834;SDS011;75078;42.636;23.198;2024-03-02T07:33:47;36.28;;;16.83;;
84834;SDS011;75078;42.636;23.198;2024-03-02T07:36:12;39.90;;;17.15;;
84834;SDS011;75078;42.636;23.198;2024-03-02T07:38:38;34.90;;;15.48;;
84834;SDS011;75078;42.636;23.198;2024-03-02T07:41:04;36.30;;;15.18;;
84834;SDS011;75078;42.636;23.198;2024-03-02T07:43:29;37.10;;;16.23;;
84834;SDS011;75078;42.636;23.198;2024-03-02T07:45:56;32.47;;;14.20;;
84834;SDS011;75078;42.636;23.198;2024-03-02T07:48:22;33.05;;;14.73;;
84834;SDS011;75078;42.636;23.198;2024-03-02T07:50:47;33.33;;;14.85;;
84834;SDS011;75078;42.636;23.198;2024-03-02T07:53:13;32.50;;;14.57;;
84834;SDS011;75078;42.636;23.198;2024-03-02T07:55:39;30.83;;;13.15;;
84834;SDS011;75078;42.636;23.198;2024-03-02T07:58:05;30.52;;;12.95;;
84834;SDS011;75078;42.636;23.198;2024-03-02T08:00:31;26.52;;;12.60;;
84834;SDS011;75078;42.636;23.198;2024-03-02T08:02:56;29.25;;;13.20;;
84834;SDS011;75078;42.636;23.198;2024-03-02T08:05:22;25.95;;;12.77;;
84834;SDS011;75078;42.636;23.198;2024-03-02T08:07:47;25.30;;;12.15;;
84834;SDS011;75078;42.636;23.198;2024-03-02T08:10:13;25.05;;;12.60;;
84834;SDS011;75078;42.636;23.198;2024-03-02T08:12:39;24.25;;;12.65;;
84834;SDS011;75078;42.636;23.198;2024-03-02T08:15:04;20.52;;;11.10;;
84834;SDS011;75078;42.636;23.198;2024-03-02T08:17:30;23.60;;;11.60;;
84834;SDS011;75078;42.636;23.198;2024-03-02T08:19:56;23.30;;;11.85;;
84834;SDS011;75078;42.636;23.198;2024-03-02T08:22:22;22.55;;;11.52;;
84834;SDS011;75078;42.636;23.198;2024-03-02T08:24:50;23.67;;;11.75;;
84834;SDS011;75078;42.636;23.198;2024-03-02T08:27:16;28.15;;;12.23;;
84834;SDS011;75078;42.636;23.198;2024-03-02T08:29:41;25.88;;;12.23;;
84834;SDS011;75078;42.636;23.198;2024-03-02T08:32:06;26.58;;;12.40;;
84834;SDS011;75078;42.636;23.198;2024-03-02T08:34:32;24.40;;;11.60;;
84834;SDS011;75078;42.636;23.198;2024-03-02T08:36:58;22.75;;;11.40;;
84834;SDS011;75078;42.636;23.198;2024-03-02T08:39:24;24.15;;;12.77;;
84834;SDS011;75078;42.636;23.198;2024-03-02T08:41:49;24.27;;;12.18;;
84834;SDS011;75078;42.636;23.198;2024-03-02T08:44:15;23.65;;;11.35;;
84834;SDS011;75078;42.636;23.198;2024-03-02T08:46:40;26.55;;;13.60;;
84834;SDS011;75078;42.636;23.198;2024-03-02T08:49:06;23.33;;;11.95;;
84834;SDS011;75078;42.636;23.198;2024-03-02T08:51:32;19.70;;;10.50;;
84834;SDS011;75078;42.636;23.198;2024-03-02T08:53:57;19.88;;;10.80;;
84834;SDS011;75078;42.636;23.198;2024-03-02T08:56:23;27.83;;;11.32;;
84834;SDS011;75078;42.636;23.198;2024-03-02T08:58:49;22.20;;;11.13;;
84834;SDS011;75078;42.636;23.198;2024-03-02T09:01:15;24.95;;;15.13;;
84834;SDS011;75078;42.636;23.198;2024-03-02T09:03:42;32.22;;;21.58;;
84834;SDS011;75078;42.636;23.198;2024-03-02T09:06:09;22.95;;;12.35;;
84834;SDS011;75078;42.636;23.198;2024-03-02T09:08:35;25.13;;;13.95;;
84834;SDS011;75078;42.636;23.198;2024-03-02T09:11:01;24.25;;;12.70;;
84834;SDS011;75078;42.636;23.198;2024-03-02T09:13:31;23.27;;;12.65;;
84834;SDS011;75078;42.636;23.198;2024-03-02T09:15:57;26.23;;;12.20;;
84834;SDS011;75078;42.636;23.198;2024-03-02T09:18:22;26.38;;;13.32;;
84834;SDS011;75078;42.636;23.198;2024-03-02T09:20:48;29.30;;;13.63;;
84834;SDS011;75078;42.636;23.198;2024-03-02T09:23:14;28.48;;;13.95;;
84834;SDS011;75078;42.636;23.198;2024-03-02T09:25:39;23.65;;;11.82;;
84834;SDS011;75078;42.636;23.198;2024-03-02T09:28:05;24.52;;;12.88;;
84834;SDS011;75078;42.636;23.198;2024-03-02T09:30:30;26.08;;;15.63;;
84834;SDS011;75078;42.636;23.198;2024-03-02T09:32:56;21.10;;;12.45;;
84834;SDS011;75078;42.636;23.198;2024-03-02T09:35:21;19.70;;;11.50;;
84834;SDS011;75078;42.636;23.198;2024-03-02T09:37:46;19.25;;;10.45;;
84834;SDS011;75078;42.636;23.198;2024-03-02T09:40:13;14.02;;;7.80;;
84834;SDS011;75078;42.636;23.198;2024-03-02T09:42:38;17.23;;;9.65;;
84834;SDS011;75078;42.636;23.198;2024-03-02T09:45:05;14.85;;;8.82;;
84834;SDS011;75078;42.636;23.198;2024-03-02T09:47:31;16.13;;;10.13;;
84834;SDS011;75078;42.636;23.198;2024-03-02T09:49:57;14.00;;;7.97;;
84834;SDS011;75078;42.636;23.198;2024-03-02T09:52:22;15.50;;;9.40;;
84834;SDS011;75078;42.636;23.198;2024-03-02T09:54:48;21.88;;;10.77;;
84834;SDS011;75078;42.636;23.198;2024-03-02T09:57:14;19.58;;;10.55;;
84834;SDS011;75078;42.636;23.198;2024-03-02T09:59:40;26.77;;;12.57;;
84834;SDS011;75078;42.636;23.198;2024-03-02T10:02:05;20.98;;;12.70;;
84834;SDS011;75078;42.636;23.198;2024-03-02T10:04:32;18.92;;;11.63;;
84834;SDS011;75078;42.636;23.198;2024-03-02T10:09:43;22.10;;;12.02;;
84834;SDS011;75078;42.636;23.198;2024-03-02T10:12:13;25.33;;;12.07;;
84834;SDS011;75078;42.636;23.198;2024-03-02T10:14:40;19.00;;;11.55;;
84834;SDS011;75078;42.636;23.198;2024-03-02T10:17:06;31.40;;;14.55;;
84834;SDS011;75078;42.636;23.198;2024-03-02T10:19:33;17.05;;;10.50;;
84834;SDS011;75078;42.636;23.198;2024-03-02T10:22:00;17.25;;;10.75;;
84834;SDS011;75078;42.636;23.198;2024-03-02T10:24:27;20.17;;;10.57;;
84834;SDS011;75078;42.636;23.198;2024-03-02T10:27:00;15.88;;;9.20;;
84834;SDS011;75078;42.636;23.198;2024-03-02T10:29:25;16.23;;;9.38;;
84834;SDS011;75078;42.636;23.198;2024-03-02T10:31:53;14.52;;;8.80;;
84834;SDS011;75078;42.636;23.198;2024-03-02T10:34:19;11.02;;;7.45;;
84834;SDS011;75078;42.636;23.198;2024-03-02T10:36:46;15.02;;;9.07;;
84834;SDS011;75078;42.636;23.198;2024-03-02T10:39:13;15.60;;;9.55;;
84834;SDS011;75078;42.636;23.198;2024-03-02T10:41:39;18.33;;;12.43;;
84834;SDS011;75078;42.636;23.198;2024-03-02T10:44:08;32.15;;;23.90;;
84834;SDS011;75078;42.636;23.198;2024-03-02T10:46:36;17.08;;;9.95;;
84834;SDS011;75078;42.636;23.198;2024-03-02T10:49:03;19.23;;;12.18;;
84834;SDS011;75078;42.636;23.198;2024-03-02T10:51:30;24.58;;;14.32;;
84834;SDS011;75078;42.636;23.198;2024-03-02T10:54:00;17.67;;;11.00;;
84834;SDS011;75078;42.636;23.198;2024-03-02T10:56:34;18.50;;;10.05;;
84834;SDS011;75078;42.636;23.198;2024-03-02T11:01:35;32.25;;;15.93;;
84834;SDS011;75078;42.636;23.198;2024-03-02T11:06:29;20.65;;;11.40;;
84834;SDS011;75078;42.636;23.198;2024-03-02T11:08:58;20.73;;;10.40;;
84834;SDS011;75078;42.636;23.198;2024-03-02T11:11:29;16.52;;;9.95;;
84834;SDS011;75078;42.636;23.198;2024-03-02T11:14:00;21.17;;;11.68;;
84834;SDS011;75078;42.636;23.198;2024-03-02T11:16:36;21.92;;;11.32;;
84834;SDS011;75078;42.636;23.198;2024-03-02T11:19:06;18.63;;;12.00;;
84834;SDS011;75078;42.636;23.198;2024-03-02T11:21:34;23.88;;;14.35;;
84834;SDS011;75078;42.636;23.198;2024-03-02T11:24:19;23.23;;;12.95;;
84834;SDS011;75078;42.636;23.198;2024-03-02T11:26:46;29.73;;;12.32;;
84834;SDS011;75078;42.636;23.198;2024-03-02T11:29:42;31.08;;;14.98;;
84834;SDS011;75078;42.636;23.198;2024-03-02T11:34:34;26.20;;;16.40;;
84834;SDS011;75078;42.636;23.198;2024-03-02T11:37:01;25.45;;;13.90;;
84834;SDS011;75078;42.636;23.198;2024-03-02T11:39:29;23.08;;;14.23;;
84834;SDS011;75078;42.636;23.198;2024-03-02T11:41:55;21.73;;;12.73;;
84834;SDS011;75078;42.636;23.198;2024-03-02T11:44:22;20.35;;;13.15;;
84834;SDS011;75078;42.636;23.198;2024-03-02T11:47:00;16.85;;;10.55;;
84834;SDS011;75078;42.636;23.198;2024-03-02T11:49:36;16.10;;;12.25;;
84834;SDS011;75078;42.636;23.198;2024-03-02T11:52:06;20.70;;;11.50;;
84834;SDS011;75078;42.636;23.198;2024-03-02T11:54:33;18.88;;;10.52;;
84834;SDS011;75078;42.636;23.198;2024-03-02T11:57:02;18.65;;;9.50;;
84834;SDS011;75078;42.636;23.198;2024-03-02T11:59:31;19.77;;;11.20;;
84834;SDS011;75078;42.636;23.198;2024-03-02T12:01:57;20.33;;;11.13;;
84834;SDS011;75078;42.636;23.198;2024-03-02T12:04:24;19.00;;;11.20;;
84834;SDS011;75078;42.636;23.198;2024-03-02T12:06:54;19.25;;;11.70;;
84834;SDS011;75078;42.636;23.198;2024-03-02T12:09:29;14.77;;;8.73;;
84834;SDS011;75078;42.636;23.198;2024-03-02T12:12:02;16.05;;;8.60;;
84834;SDS011;75078;42.636;23.198;2024-03-02T12:14:29;16.42;;;9.10;;
84834;SDS011;75078;42.636;23.198;2024-03-02T12:16:55;20.38;;;10.57;;
84834;SDS011;75078;42.636;23.198;2024-03-02T12:19:21;15.75;;;10.30;;
84834;SDS011;75078;42.636;23.198;2024-03-02T12:21:46;21.67;;;10.88;;
84834;SDS011;75078;42.636;23.198;2024-03-02T12:24:11;19.92;;;11.55;;
84834;SDS011;75078;42.636;23.198;2024-03-02T12:26:37;16.17;;;10.50;;
84834;SDS011;75078;42.636;23.198;2024-03-02T12:29:02;16.33;;;9.82;;
84834;SDS011;75078;42.636;23.198;2024-03-02T12:31:28;23.33;;;12.70;;
84834;SDS011;75078;42.636;23.198;2024-03-02T12:33:54;26.50;;;14.07;;
84834;SDS011;75078;42.636;23.198;2024-03-02T12:36:19;31.15;;;15.05;;
84834;SDS011;75078;42.636;23.198;2024-03-02T12:38:45;28.05;;;14.15;;
84834;SDS011;75078;42.636;23.198;2024-03-02T12:41:14;25.92;;;13.98;;
84834;SDS011;75078;42.636;23.198;2024-03-02T12:43:40;24.60;;;13.23;;
84834;SDS011;75078;42.636;23.198;2024-03-02T12:46:05;31.40;;;16.15;;
84834;SDS011;75078;42.636;23.198;2024-03-02T12:48:34;29.80;;;15.18;;
84834;SDS011;75078;42.636;23.198;2024-03-02T12:51:01;30.25;;;15.65;;
84834;SDS011;75078;42.636;23.198;2024-03-02T12:53:27;31.40;;;15.98;;
84834;SDS011;75078;42.636;23.198;2024-03-02T12:55:52;32.88;;;17.23;;
84834;SDS011;75078;42.636;23.198;2024-03-02T12:58:21;30.23;;;15.40;;
84834;SDS011;75078;42.636;23.198;2024-03-02T13:00:47;31.92;;;15.85;;
84834;SDS011;75078;42.636;23.198;2024-03-02T13:03:13;37.95;;;20.02;;
84834;SDS011;75078;42.636;23.198;2024-03-02T13:05:39;39.88;;;19.52;;
84834;SDS011;75078;42.636;23.198;2024-03-02T13:08:05;37.78;;;21.15;;
84834;SDS011;75078;42.636;23.198;2024-03-02T13:10:32;39.65;;;19.50;;
84834;SDS011;75078;42.636;23.198;2024-03-02T13:12:58;41.05;;;19.05;;
84834;SDS011;75078;42.636;23.198;2024-03-02T13:15:25;38.90;;;19.88;;
84834;SDS011;75078;42.636;23.198;2024-03-02T13:17:51;37.08;;;18.90;;
84834;SDS011;75078;42.636;23.198;2024-03-02T13:20:16;36.50;;;19.38;;
84834;SDS011;75078;42.636;23.198;2024-03-02T13:22:43;43.85;;;21.50;;
84834;SDS011;75078;42.636;23.198;2024-03-02T13:25:08;40.78;;;19.13;;
84834;SDS011;75078;42.636;23.198;2024-03-02T13:27:35;36.45;;;19.10;;
84834;SDS011;75078;42.636;23.198;2024-03-02T13:30:02;39.00;;;20.10;;
84834;SDS011;75078;42.636;23.198;2024-03-02T13:32:28;40.83;;;20.17;;
84834;SDS011;75078;42.636;23.198;2024-03-02T13:34:53;42.67;;;20.35;;
84834;SDS011;75078;42.636;23.198;2024-03-02T13:37:20;45.70;;;22.63;;
84834;SDS011;75078;42.636;23.198;2024-03-02T13:39:45;43.28;;;21.33;;
84834;SDS011;75078;42.636;23.198;2024-03-02T13:42:11;42.00;;;22.50;;
84834;SDS011;75078;42.636;23.198;2024-03-02T13:44:39;48.22;;;22.20;;
84834;SDS011;75078;42.636;23.198;2024-03-02T13:47:05;46.20;;;21.67;;
84834;SDS011;75078;42.636;23.198;2024-03-02T13:49:31;47.47;;;23.38;;
84834;SDS011;75078;42.636;23.198;2024-03-02T13:52:04;42.83;;;21.02;;
84834;SDS011;75078;42.636;23.198;2024-03-02T13:54:39;41.28;;;22.15;;
84834;SDS011;75078;42.636;23.198;2024-03-02T13:57:05;43.00;;;22.10;;
84834;SDS011;75078;42.636;23.198;2024-03-02T13:59:31;44.25;;;21.75;;
84834;SDS011;75078;42.636;23.198;2024-03-02T14:01:56;45.85;;;22.92;;
84834;SDS011;75078;42.636;23.198;2024-03-02T14:04:22;45.05;;;22.00;;
84834;SDS011;75078;42.636;23.198;2024-03-02T14:06:47;48.17;;;21.40;;
84834;SDS011;75078;42.636;23.198;2024-03-02T14:09:12;45.22;;;21.35;;
84834;SDS011;75078;42.636;23.198;2024-03-02T14:11:38;44.38;;;24.00;;
84834;SDS011;75078;42.636;23.198;2024-03-02T14:14:03;47.40;;;22.50;;
84834;SDS011;75078;42.636;23.198;2024-03-02T14:16:29;39.17;;;20.25;;
84834;SDS011;75078;42.636;23.198;2024-03-02T14:18:54;46.80;;;25.25;;
84834;SDS011;75078;42.636;23.198;2024-03-02T14:21:20;42.90;;;22.38;;
84834;SDS011;75078;42.636;23.198;2024-03-02T14:23:45;54.47;;;24.00;;